sensor_id;sensor_type;location;lat;lon;timestamp;pressure;altitude;pressure_sealevel;temperature;humidity
5952;BME280;3001;42.622;23.194;2023-06-22T00:02:27;91845.41;;;20.39;81.31
5952;BME280;3001;42.622;23.194;2023-06-22T00:04:53;91843.03;;;20.34;81.87
5952;BME280;3001;42.622;23.194;2023-06-22T00:07:20;91843.84;;;20.19;82.35
5952;BME280;3001;42.622;23.194;2023-06-22T00:09:47;91841.88;;;20.16;81.63
5952;BME280;3001;42.622;23.194;2023-06-22T00:12:13;91835.09;;;20.15;82.65
5952;BME280;3001;42.622;23.194;2023-06-22T00:14:40;91836.56;;;20.13;82.98
5952;BME280;3001;42.622;23.194;2023-06-22T00:17:06;91826.84;;;20.17;82.23
5952;BME280;3001;42.622;23.194;2023-06-22T00:19:34;91831.19;;;20.09;83.42
5952;BME280;3001;42.622;23.194;2023-06-22T00:22:01;91824.41;;;20.08;83.69
5952;BME280;3001;42.622;23.194;2023-06-22T00:24:28;91819.19;;;20.12;84.71
5952;BME280;3001;42.622;23.194;2023-06-22T00:26:55;91807.88;;;20.11;84.17
5952;BME280;3001;42.622;23.194;2023-06-22T00:29:22;91801.06;;;20.10;85.52
5952;BME280;3001;42.622;23.194;2023-06-22T00:31:48;91802.41;;;20.20;84.81
5952;BME280;3001;42.622;23.194;2023-06-22T00:34:15;91801.63;;;20.19;85.39
5952;BME280;3001;42.622;23.194;2023-06-22T00:36:43;91809.22;;;20.21;84.53
5952;BME280;3001;42.622;23.194;2023-06-22T00:39:10;91804.13;;;20.12;84.04
5952;BME280;3001;42.622;23.194;2023-06-22T00:41:37;91804.22;;;20.16;83.86
5952;BME280;3001;42.622;23.194;2023-06-22T00:44:04;91813.75;;;20.05;84.09
5952;BME280;3001;42.622;23.194;2023-06-22T00:46:32;91806.91;;;20.19;83.59
5952;BME280;3001;42.622;23.194;2023-06-22T00:48:59;91816.78;;;20.22;82.55
5952;BME280;3001;42.622;23.194;2023-06-22T00:51:26;91811.34;;;20.15;82.47
5952;BME280;3001;42.622;23.194;2023-06-22T00:53:54;91806.19;;;20.03;83.91
5952;BME280;3001;42.622;23.194;2023-06-22T00:56:22;91798.72;;;20.05;85.43
5952;BME280;3001;42.622;23.194;2023-06-22T00:58:50;91803.13;;;20.01;84.77
5952;BME280;3001;42.622;23.194;2023-06-22T01:01:19;91802.03;;;19.87;84.23
5952;BME280;3001;42.622;23.194;2023-06-22T01:03:48;91805.75;;;20.01;82.78
5952;BME280;3001;42.622;23.194;2023-06-22T01:06:20;91818.34;;;20.08;82.16
5952;BME280;3001;42.622;23.194;2023-06-22T01:09:02;91815.31;;;19.90;83.48
5952;BME280;3001;42.622;23.194;2023-06-22T01:11:38;91818.63;;;20.03;82.15
5952;BME280;3001;42.622;23.194;2023-06-22T01:14:12;91815.84;;;19.99;80.77
5952;BME280;3001;42.622;23.194;2023-06-22T01:16:44;91825.50;;;20.07;81.53
5952;BME280;3001;42.622;23.194;2023-06-22T01:19:31;91815.78;;;20.11;80.90
5952;BME280;3001;42.622;23.194;2023-06-22T01:22:02;91817.31;;;20.12;81.57
5952;BME280;3001;42.622;23.194;2023-06-22T01:24:33;91814.28;;;20.29;80.93
5952;BME280;3001;42.622;23.194;2023-06-22T01:27:12;91807.91;;;20.30;82.02
5952;BME280;3001;42.622;23.194;2023-06-22T01:29:48;91816.09;;;20.25;82.88
5952;BME280;3001;42.622;23.194;2023-06-22T01:32:17;91817.63;;;20.26;83.33
5952;BME280;3001;42.622;23.194;2023-06-22T01:34:45;91812.16;;;20.35;83.62
5952;BME280;3001;42.622;23.194;2023-06-22T01:37:13;91821.84;;;20.31;84.49
5952;BME280;3001;42.622;23.194;2023-06-22T01:39:40;91818.94;;;20.36;84.65
5952;BME280;3001;42.622;23.194;2023-06-22T01:42:07;91821.94;;;20.53;84.26
5952;BME280;3001;42.622;23.194;2023-06-22T01:44:34;91819.16;;;20.46;84.40
5952;BME280;3001;42.622;23.194;2023-06-22T01:47:02;91816.25;;;20.51;84.65
5952;BME280;3001;42.622;23.194;2023-06-22T01:49:29;91817.00;;;20.33;85.61
5952;BME280;3001;42.622;23.194;2023-06-22T01:51:56;91821.94;;;20.34;86.21
5952;BME280;3001;42.622;23.194;2023-06-22T01:54:23;91824.91;;;20.33;86.71
5952;BME280;3001;42.622;23.194;2023-06-22T01:56:49;91825.13;;;20.24;87.77
5952;BME280;3001;42.622;23.194;2023-06-22T01:59:27;91821.94;;;20.34;87.84
5952;BME280;3001;42.622;23.194;2023-06-22T02:02:01;91825.88;;;20.25;88.43
5952;BME280;3001;42.622;23.194;2023-06-22T02:04:34;91840.72;;;20.14;86.21
5952;BME280;3001;42.622;23.194;2023-06-22T02:07:05;91844.09;;;20.14;87.54
5952;BME280;3001;42.622;23.194;2023-06-22T02:09:35;91845.72;;;20.19;86.57
5952;BME280;3001;42.622;23.194;2023-06-22T02:12:05;91848.69;;;20.17;85.84
5952;BME280;3001;42.622;23.194;2023-06-22T02:14:34;91847.16;;;20.16;86.87
5952;BME280;3001;42.622;23.194;2023-06-22T02:17:01;91836.34;;;20.21;87.15
5952;BME280;3001;42.622;23.194;2023-06-22T02:19:31;91832.53;;;20.19;87.24
5952;BME280;3001;42.622;23.194;2023-06-22T02:21:58;91832.22;;;20.05;88.42
5952;BME280;3001;42.622;23.194;2023-06-22T02:24:25;91820.97;;;20.08;88.11
5952;BME280;3001;42.622;23.194;2023-06-22T02:26:51;91826.94;;;20.05;88.74
5952;BME280;3001;42.622;23.194;2023-06-22T02:29:18;91829.66;;;20.08;88.01
5952;BME280;3001;42.622;23.194;2023-06-22T02:31:45;91826.25;;;20.08;87.80
5952;BME280;3001;42.622;23.194;2023-06-22T02:34:12;91840.53;;;20.22;88.69
5952;BME280;3001;42.622;23.194;2023-06-22T02:36:45;91838.66;;;20.23;89.61
5952;BME280;3001;42.622;23.194;2023-06-22T02:39:17;91836.91;;;20.30;89.65
5952;BME280;3001;42.622;23.194;2023-06-22T02:41:44;91833.66;;;20.18;90.89
5952;BME280;3001;42.622;23.194;2023-06-22T02:44:10;91838.00;;;20.10;91.22
5952;BME280;3001;42.622;23.194;2023-06-22T02:46:37;91836.63;;;20.16;90.77
5952;BME280;3001;42.622;23.194;2023-06-22T02:49:04;91830.09;;;20.10;91.11
5952;BME280;3001;42.622;23.194;2023-06-22T02:51:33;91833.06;;;20.09;91.69
5952;BME280;3001;42.622;23.194;2023-06-22T02:54:02;91825.78;;;20.21;91.48
5952;BME280;3001;42.622;23.194;2023-06-22T02:56:29;91825.50;;;20.07;92.16
5952;BME280;3001;42.622;23.194;2023-06-22T02:58:56;91834.00;;;20.35;91.29
5952;BME280;3001;42.622;23.194;2023-06-22T03:01:26;91826.06;;;20.16;91.73
5952;BME280;3001;42.622;23.194;2023-06-22T03:03:53;91814.97;;;20.26;91.47
5952;BME280;3001;42.622;23.194;2023-06-22T03:06:20;91828.91;;;20.27;91.97
5952;BME280;3001;42.622;23.194;2023-06-22T03:08:48;91837.34;;;20.32;91.95
5952;BME280;3001;42.622;23.194;2023-06-22T03:11:16;91838.53;;;20.35;91.96
5952;BME280;3001;42.622;23.194;2023-06-22T03:13:43;91840.50;;;20.57;90.48
5952;BME280;3001;42.622;23.194;2023-06-22T03:16:11;91842.63;;;20.51;90.56
5952;BME280;3001;42.622;23.194;2023-06-22T03:18:37;91837.47;;;20.39;91.31
5952;BME280;3001;42.622;23.194;2023-06-22T03:21:04;91853.47;;;20.46;91.93
5952;BME280;3001;42.622;23.194;2023-06-22T03:23:30;91850.78;;;20.62;91.80
5952;BME280;3001;42.622;23.194;2023-06-22T03:25:57;91843.06;;;20.53;91.80
5952;BME280;3001;42.622;23.194;2023-06-22T03:28:25;91848.75;;;20.55;92.13
5952;BME280;3001;42.622;23.194;2023-06-22T03:30:52;91849.38;;;20.49;92.72
5952;BME280;3001;42.622;23.194;2023-06-22T03:33:18;91854.03;;;20.55;93.11
5952;BME280;3001;42.622;23.194;2023-06-22T03:35:45;91849.44;;;20.52;92.93
5952;BME280;3001;42.622;23.194;2023-06-22T03:38:12;91861.72;;;20.45;93.90
5952;BME280;3001;42.622;23.194;2023-06-22T03:40:38;91862.97;;;20.51;94.27
5952;BME280;3001;42.622;23.194;2023-06-22T03:43:05;91861.41;;;20.46;94.62
5952;BME280;3001;42.622;23.194;2023-06-22T03:45:33;91865.06;;;20.42;94.62
5952;BME280;3001;42.622;23.194;2023-06-22T03:48:00;91874.31;;;20.51;93.95
5952;BME280;3001;42.622;23.194;2023-06-22T03:50:27;91878.34;;;20.45;94.54
5952;BME280;3001;42.622;23.194;2023-06-22T03:52:54;91880.19;;;20.45;95.17
5952;BME280;3001;42.622;23.194;2023-06-22T03:55:20;91882.09;;;20.44;96.24
5952;BME280;3001;42.622;23.194;2023-06-22T03:57:47;91889.97;;;20.60;96.32
5952;BME280;3001;42.622;23.194;2023-06-22T04:00:14;91881.19;;;20.56;96.53
5952;BME280;3001;42.622;23.194;2023-06-22T04:02:43;91873.13;;;20.49;97.08
5952;BME280;3001;42.622;23.194;2023-06-22T04:05:10;91877.00;;;20.36;97.97
5952;BME280;3001;42.622;23.194;2023-06-22T04:07:36;91867.28;;;20.40;98.40
5952;BME280;3001;42.622;23.194;2023-06-22T04:10:03;91861.50;;;20.34;99.72
5952;BME280;3001;42.622;23.194;2023-06-22T04:12:30;91860.56;;;20.42;99.13
5952;BME280;3001;42.622;23.194;2023-06-22T04:14:57;91854.09;;;20.59;98.48
5952;BME280;3001;42.622;23.194;2023-06-22T04:17:24;91846.31;;;20.66;96.84
5952;BME280;3001;42.622;23.194;2023-06-22T04:19:52;91851.25;;;20.67;97.45
5952;BME280;3001;42.622;23.194;2023-06-22T04:22:19;91852.78;;;20.68;97.93
5952;BME280;3001;42.622;23.194;2023-06-22T04:24:45;91854.66;;;20.68;97.80
5952;BME280;3001;42.622;23.194;2023-06-22T04:27:12;91853.34;;;20.77;94.11
5952;BME280;3001;42.622;23.194;2023-06-22T04:29:39;91845.22;;;20.86;93.36
5952;BME280;3001;42.622;23.194;2023-06-22T04:32:14;91852.59;;;20.96;95.71
5952;BME280;3001;42.622;23.194;2023-06-22T04:34:41;91849.88;;;20.92;97.25
5952;BME280;3001;42.622;23.194;2023-06-22T04:37:09;91859.00;;;20.95;98.07
5952;BME280;3001;42.622;23.194;2023-06-22T04:39:40;91856.59;;;21.08;98.18
5952;BME280;3001;42.622;23.194;2023-06-22T04:42:07;91860.03;;;20.90;98.88
5952;BME280;3001;42.622;23.194;2023-06-22T04:44:34;91866.06;;;21.09;98.69
5952;BME280;3001;42.622;23.194;2023-06-22T04:47:01;91865.59;;;21.04;97.20
5952;BME280;3001;42.622;23.194;2023-06-22T04:49:34;91867.94;;;21.09;95.47
5952;BME280;3001;42.622;23.194;2023-06-22T04:52:03;91876.41;;;21.18;95.46
5952;BME280;3001;42.622;23.194;2023-06-22T04:54:32;91886.84;;;21.30;91.67
5952;BME280;3001;42.622;23.194;2023-06-22T04:56:59;91888.47;;;21.38;91.99
5952;BME280;3001;42.622;23.194;2023-06-22T04:59:27;91885.03;;;21.15;91.41
5952;BME280;3001;42.622;23.194;2023-06-22T05:01:55;91875.72;;;21.21;93.05
5952;BME280;3001;42.622;23.194;2023-06-22T05:04:22;91880.03;;;21.29;94.75
5952;BME280;3001;42.622;23.194;2023-06-22T05:06:49;91883.19;;;21.15;96.03
5952;BME280;3001;42.622;23.194;2023-06-22T05:09:16;91878.72;;;21.19;96.50
5952;BME280;3001;42.622;23.194;2023-06-22T05:11:45;91879.19;;;21.25;95.31
5952;BME280;3001;42.622;23.194;2023-06-22T05:14:11;91881.69;;;21.18;95.80
5952;BME280;3001;42.622;23.194;2023-06-22T05:16:38;91885.00;;;21.34;95.27
5952;BME280;3001;42.622;23.194;2023-06-22T05:19:05;91884.78;;;21.42;95.28
5952;BME280;3001;42.622;23.194;2023-06-22T05:21:32;91869.00;;;21.46;95.57
5952;BME280;3001;42.622;23.194;2023-06-22T05:23:59;91866.56;;;21.60;94.85
5952;BME280;3001;42.622;23.194;2023-06-22T05:26:28;91875.13;;;21.72;94.15
5952;BME280;3001;42.622;23.194;2023-06-22T05:28:57;91871.09;;;21.78;93.71
5952;BME280;3001;42.622;23.194;2023-06-22T05:31:24;91870.25;;;21.97;92.29
5952;BME280;3001;42.622;23.194;2023-06-22T05:33:51;91880.09;;;22.00;92.77
5952;BME280;3001;42.622;23.194;2023-06-22T05:38:47;91873.50;;;22.13;95.71
5952;BME280;3001;42.622;23.194;2023-06-22T05:41:13;91882.47;;;22.31;95.63
5952;BME280;3001;42.622;23.194;2023-06-22T05:43:40;91890.59;;;22.41;94.84
5952;BME280;3001;42.622;23.194;2023-06-22T05:46:08;91891.75;;;22.44;92.98
5952;BME280;3001;42.622;23.194;2023-06-22T05:48:35;91904.22;;;22.69;90.37
5952;BME280;3001;42.622;23.194;2023-06-22T05:51:02;91904.63;;;22.71;89.28
5952;BME280;3001;42.622;23.194;2023-06-22T05:53:29;91904.53;;;22.93;89.89
5952;BME280;3001;42.622;23.194;2023-06-22T05:55:55;91906.78;;;22.92;89.52
5952;BME280;3001;42.622;23.194;2023-06-22T05:58:22;91912.88;;;22.95;91.74
5952;BME280;3001;42.622;23.194;2023-06-22T06:00:49;91907.59;;;22.95;86.51
5952;BME280;3001;42.622;23.194;2023-06-22T06:03:17;91904.44;;;23.16;86.45
5952;BME280;3001;42.622;23.194;2023-06-22T06:05:43;91907.31;;;23.04;88.45
5952;BME280;3001;42.622;23.194;2023-06-22T06:08:10;91905.69;;;23.25;88.37
5952;BME280;3001;42.622;23.194;2023-06-22T06:10:38;91896.53;;;23.19;90.62
5952;BME280;3001;42.622;23.194;2023-06-22T06:13:04;91900.50;;;23.36;90.33
5952;BME280;3001;42.622;23.194;2023-06-22T06:15:31;91904.38;;;23.42;89.01
5952;BME280;3001;42.622;23.194;2023-06-22T06:17:58;91893.47;;;23.50;87.06
5952;BME280;3001;42.622;23.194;2023-06-22T06:20:27;91901.94;;;23.66;84.70
5952;BME280;3001;42.622;23.194;2023-06-22T06:22:54;91902.22;;;23.54;85.78
5952;BME280;3001;42.622;23.194;2023-06-22T06:25:21;91898.19;;;23.71;84.11
5952;BME280;3001;42.622;23.194;2023-06-22T06:27:49;91893.81;;;23.82;83.36
5952;BME280;3001;42.622;23.194;2023-06-22T06:30:18;91903.44;;;24.00;83.19
5952;BME280;3001;42.622;23.194;2023-06-22T06:32:46;91903.47;;;24.07;82.59
5952;BME280;3001;42.622;23.194;2023-06-22T06:35:14;91906.84;;;24.01;83.29
5952;BME280;3001;42.622;23.194;2023-06-22T06:37:44;91904.75;;;24.24;85.17
5952;BME280;3001;42.622;23.194;2023-06-22T06:40:12;91900.56;;;24.19;89.48
5952;BME280;3001;42.622;23.194;2023-06-22T06:42:42;91894.22;;;24.34;86.25
5952;BME280;3001;42.622;23.194;2023-06-22T06:45:10;91897.50;;;24.71;86.33
5952;BME280;3001;42.622;23.194;2023-06-22T06:47:37;91909.59;;;24.58;87.46
5952;BME280;3001;42.622;23.194;2023-06-22T06:50:05;91899.25;;;24.50;88.64
5952;BME280;3001;42.622;23.194;2023-06-22T06:52:32;91886.16;;;24.74;87.93
5952;BME280;3001;42.622;23.194;2023-06-22T06:55:00;91891.94;;;24.93;85.44
5952;BME280;3001;42.622;23.194;2023-06-22T06:57:29;91889.34;;;25.14;86.67
5952;BME280;3001;42.622;23.194;2023-06-22T06:59:56;91898.47;;;25.13;84.12
5952;BME280;3001;42.622;23.194;2023-06-22T07:02:23;91890.56;;;25.31;84.86
5952;BME280;3001;42.622;23.194;2023-06-22T07:04:51;91895.13;;;25.27;84.85
5952;BME280;3001;42.622;23.194;2023-06-22T07:07:17;91896.34;;;25.50;83.39
5952;BME280;3001;42.622;23.194;2023-06-22T07:09:44;91892.59;;;25.72;82.31
5952;BME280;3001;42.622;23.194;2023-06-22T07:12:12;91885.38;;;25.80;84.53
5952;BME280;3001;42.622;23.194;2023-06-22T07:14:39;91896.03;;;25.80;85.81
5952;BME280;3001;42.622;23.194;2023-06-22T07:17:05;91894.19;;;25.87;83.97
5952;BME280;3001;42.622;23.194;2023-06-22T07:19:33;91895.72;;;26.06;83.67
5952;BME280;3001;42.622;23.194;2023-06-22T07:21:59;91895.34;;;26.14;80.04
5952;BME280;3001;42.622;23.194;2023-06-22T07:24:26;91901.41;;;26.29;78.84
5952;BME280;3001;42.622;23.194;2023-06-22T07:26:53;91895.72;;;26.41;82.73
5952;BME280;3001;42.622;23.194;2023-06-22T07:29:21;91898.75;;;26.50;82.84
5952;BME280;3001;42.622;23.194;2023-06-22T07:31:49;91897.94;;;26.91;78.91
5952;BME280;3001;42.622;23.194;2023-06-22T07:34:16;91899.44;;;27.09;78.29
5952;BME280;3001;42.622;23.194;2023-06-22T07:36:43;91906.25;;;27.21;79.62
5952;BME280;3001;42.622;23.194;2023-06-22T07:39:10;91906.28;;;27.10;78.37
5952;BME280;3001;42.622;23.194;2023-06-22T07:41:38;91910.03;;;27.34;77.95
5952;BME280;3001;42.622;23.194;2023-06-22T07:44:05;91913.00;;;27.50;70.88
5952;BME280;3001;42.622;23.194;2023-06-22T07:46:34;91920.97;;;27.57;69.48
5952;BME280;3001;42.622;23.194;2023-06-22T07:49:01;91914.78;;;27.77;70.60
5952;BME280;3001;42.622;23.194;2023-06-22T07:51:28;91912.53;;;27.72;66.98
5952;BME280;3001;42.622;23.194;2023-06-22T07:53:54;91909.84;;;27.72;71.76
5952;BME280;3001;42.622;23.194;2023-06-22T07:56:21;91913.66;;;27.75;73.03
5952;BME280;3001;42.622;23.194;2023-06-22T07:58:48;91909.84;;;27.79;75.69
5952;BME280;3001;42.622;23.194;2023-06-22T08:01:14;91907.03;;;27.97;75.40
5952;BME280;3001;42.622;23.194;2023-06-22T08:03:43;91906.25;;;28.00;74.84
5952;BME280;3001;42.622;23.194;2023-06-22T08:06:10;91902.72;;;28.13;77.11
5952;BME280;3001;42.622;23.194;2023-06-22T08:08:36;91894.03;;;28.02;78.52
5952;BME280;3001;42.622;23.194;2023-06-22T08:11:03;91900.53;;;28.01;79.63
5952;BME280;3001;42.622;23.194;2023-06-22T08:13:31;91895.56;;;28.03;79.23
5952;BME280;3001;42.622;23.194;2023-06-22T08:15:57;91895.56;;;28.00;81.18
5952;BME280;3001;42.622;23.194;2023-06-22T08:18:24;91890.66;;;27.91;81.98
5952;BME280;3001;42.622;23.194;2023-06-22T08:20:52;91894.84;;;27.96;81.60
5952;BME280;3001;42.622;23.194;2023-06-22T08:23:19;91890.72;;;27.84;82.67
5952;BME280;3001;42.622;23.194;2023-06-22T08:25:45;91895.97;;;27.98;80.31
5952;BME280;3001;42.622;23.194;2023-06-22T08:28:13;91883.50;;;27.74;82.47
5952;BME280;3001;42.622;23.194;2023-06-22T08:30:40;91883.44;;;27.85;81.85
5952;BME280;3001;42.622;23.194;2023-06-22T08:33:06;91887.19;;;28.01;83.49
5952;BME280;3001;42.622;23.194;2023-06-22T08:35:33;91890.16;;;28.10;77.89
5952;BME280;3001;42.622;23.194;2023-06-22T08:38:01;91892.59;;;28.45;75.47
5952;BME280;3001;42.622;23.194;2023-06-22T08:40:28;91900.53;;;28.52;68.22
5952;BME280;3001;42.622;23.194;2023-06-22T08:42:55;91904.97;;;28.69;69.96
5952;BME280;3001;42.622;23.194;2023-06-22T08:45:22;91901.91;;;28.70;72.78
5952;BME280;3001;42.622;23.194;2023-06-22T08:47:49;91909.00;;;28.91;70.34
5952;BME280;3001;42.622;23.194;2023-06-22T08:50:15;91900.13;;;29.01;68.66
5952;BME280;3001;42.622;23.194;2023-06-22T08:52:42;91897.53;;;28.87;70.26
5952;BME280;3001;42.622;23.194;2023-06-22T08:55:10;91900.03;;;29.08;70.83
5952;BME280;3001;42.622;23.194;2023-06-22T08:57:37;91895.75;;;29.14;67.75
5952;BME280;3001;42.622;23.194;2023-06-22T09:00:06;91893.66;;;29.28;69.73
5952;BME280;3001;42.622;23.194;2023-06-22T09:02:40;91885.56;;;29.35;70.33
5952;BME280;3001;42.622;23.194;2023-06-22T09:05:07;91886.97;;;29.47;70.98
5952;BME280;3001;42.622;23.194;2023-06-22T09:07:34;91880.28;;;29.62;70.97
5952;BME280;3001;42.622;23.194;2023-06-22T09:10:01;91885.66;;;29.62;73.50
5952;BME280;3001;42.622;23.194;2023-06-22T09:12:31;91886.28;;;29.99;71.45
5952;BME280;3001;42.622;23.194;2023-06-22T09:14:58;91889.41;;;30.21;69.45
5952;BME280;3001;42.622;23.194;2023-06-22T09:17:25;91895.03;;;30.30;68.52
5952;BME280;3001;42.622;23.194;2023-06-22T09:19:52;91884.78;;;30.48;65.75
5952;BME280;3001;42.622;23.194;2023-06-22T09:22:19;91885.84;;;30.53;66.48
5952;BME280;3001;42.622;23.194;2023-06-22T09:24:46;91888.16;;;30.51;62.17
5952;BME280;3001;42.622;23.194;2023-06-22T09:27:13;91896.47;;;30.60;60.57
5952;BME280;3001;42.622;23.194;2023-06-22T09:29:41;91895.50;;;30.74;63.32
5952;BME280;3001;42.622;23.194;2023-06-22T09:32:08;91894.94;;;30.82;64.06
5952;BME280;3001;42.622;23.194;2023-06-22T09:34:35;91902.06;;;30.92;66.49
5952;BME280;3001;42.622;23.194;2023-06-22T09:37:01;91895.53;;;30.93;64.67
5952;BME280;3001;42.622;23.194;2023-06-22T09:39:28;91908.09;;;31.19;56.58
5952;BME280;3001;42.622;23.194;2023-06-22T09:41:57;91899.56;;;31.24;59.91
5952;BME280;3001;42.622;23.194;2023-06-22T09:44:24;91898.63;;;31.34;63.05
5952;BME280;3001;42.622;23.194;2023-06-22T09:46:52;91898.63;;;31.34;65.93
5952;BME280;3001;42.622;23.194;2023-06-22T09:49:19;91896.94;;;31.40;65.14
5952;BME280;3001;42.622;23.194;2023-06-22T09:51:46;91896.50;;;31.65;62.81
5952;BME280;3001;42.622;23.194;2023-06-22T09:54:12;91896.22;;;31.79;64.49
5952;BME280;3001;42.622;23.194;2023-06-22T09:56:39;91899.22;;;31.61;63.15
5952;BME280;3001;42.622;23.194;2023-06-22T09:59:06;91898.13;;;31.78;62.99
5952;BME280;3001;42.622;23.194;2023-06-22T10:01:33;91895.56;;;31.91;62.67
5952;BME280;3001;42.622;23.194;2023-06-22T10:04:01;91890.66;;;31.86;64.20
5952;BME280;3001;42.622;23.194;2023-06-22T10:06:28;91884.72;;;31.94;60.61
5952;BME280;3001;42.622;23.194;2023-06-22T10:08:55;91889.38;;;32.10;61.75
5952;BME280;3001;42.622;23.194;2023-06-22T10:11:22;91895.47;;;31.94;62.13
5952;BME280;3001;42.622;23.194;2023-06-22T10:13:54;91883.06;;;32.00;64.06
5952;BME280;3001;42.622;23.194;2023-06-22T10:16:21;91885.59;;;32.07;61.40
5952;BME280;3001;42.622;23.194;2023-06-22T10:18:47;91887.91;;;32.25;61.37
5952;BME280;3001;42.622;23.194;2023-06-22T10:21:15;91876.25;;;32.12;60.96
5952;BME280;3001;42.622;23.194;2023-06-22T10:23:42;91874.38;;;31.93;60.44
5952;BME280;3001;42.622;23.194;2023-06-22T10:26:09;91884.25;;;32.15;59.83
5952;BME280;3001;42.622;23.194;2023-06-22T10:28:35;91890.88;;;32.30;59.10
5952;BME280;3001;42.622;23.194;2023-06-22T10:31:02;91885.97;;;32.25;53.50
5952;BME280;3001;42.622;23.194;2023-06-22T10:33:29;91881.34;;;32.26;58.55
5952;BME280;3001;42.622;23.194;2023-06-22T10:35:55;91876.84;;;32.39;57.50
5952;BME280;3001;42.622;23.194;2023-06-22T10:38:23;91873.97;;;32.45;57.25
5952;BME280;3001;42.622;23.194;2023-06-22T10:40:50;91882.38;;;32.47;57.12
5952;BME280;3001;42.622;23.194;2023-06-22T10:43:17;91877.41;;;32.30;56.91
5952;BME280;3001;42.622;23.194;2023-06-22T10:45:45;91872.31;;;32.16;60.70
5952;BME280;3001;42.622;23.194;2023-06-22T10:48:11;91871.03;;;32.40;58.83
5952;BME280;3001;42.622;23.194;2023-06-22T10:50:38;91873.47;;;32.19;56.22
5952;BME280;3001;42.622;23.194;2023-06-22T10:53:05;91866.06;;;32.23;56.15
5952;BME280;3001;42.622;23.194;2023-06-22T10:55:33;91867.97;;;32.22;58.75
5952;BME280;3001;42.622;23.194;2023-06-22T10:57:59;91871.09;;;32.21;56.70
5952;BME280;3001;42.622;23.194;2023-06-22T11:00:26;91876.13;;;32.35;55.26
5952;BME280;3001;42.622;23.194;2023-06-22T11:02:53;91872.28;;;32.67;55.99
5952;BME280;3001;42.622;23.194;2023-06-22T11:05:19;91868.03;;;32.70;53.35
5952;BME280;3001;42.622;23.194;2023-06-22T11:07:46;91864.72;;;32.62;54.64
5952;BME280;3001;42.622;23.194;2023-06-22T11:10:14;91868.44;;;32.68;55.47
5952;BME280;3001;42.622;23.194;2023-06-22T11:12:42;91870.91;;;32.91;56.43
5952;BME280;3001;42.622;23.194;2023-06-22T11:15:09;91871.19;;;32.81;55.42
5952;BME280;3001;42.622;23.194;2023-06-22T11:17:36;91866.41;;;32.72;52.30
5952;BME280;3001;42.622;23.194;2023-06-22T11:20:04;91864.81;;;32.75;53.56
5952;BME280;3001;42.622;23.194;2023-06-22T11:22:36;91865.28;;;32.86;54.49
5952;BME280;3001;42.622;23.194;2023-06-22T11:25:03;91866.56;;;32.81;51.76
5952;BME280;3001;42.622;23.194;2023-06-22T11:27:29;91863.94;;;32.94;48.06
5952;BME280;3001;42.622;23.194;2023-06-22T11:29:57;91851.66;;;32.93;53.54
5952;BME280;3001;42.622;23.194;2023-06-22T11:32:24;91856.03;;;33.15;54.45
5952;BME280;3001;42.622;23.194;2023-06-22T11:34:51;91860.25;;;33.16;47.03
5952;BME280;3001;42.622;23.194;2023-06-22T11:37:17;91854.91;;;33.29;54.38
5952;BME280;3001;42.622;23.194;2023-06-22T11:39:44;91857.97;;;33.31;51.45
5952;BME280;3001;42.622;23.194;2023-06-22T11:42:11;91856.06;;;33.44;50.01
5952;BME280;3001;42.622;23.194;2023-06-22T11:44:38;91856.25;;;33.37;49.95
5952;BME280;3001;42.622;23.194;2023-06-22T11:47:06;91851.94;;;33.11;50.22
5952;BME280;3001;42.622;23.194;2023-06-22T11:49:33;91848.47;;;33.26;52.40
5952;BME280;3001;42.622;23.194;2023-06-22T11:51:59;91845.31;;;33.28;53.40
5952;BME280;3001;42.622;23.194;2023-06-22T11:54:26;91842.34;;;33.10;51.30
5952;BME280;3001;42.622;23.194;2023-06-22T11:56:53;91840.16;;;33.21;48.63
5952;BME280;3001;42.622;23.194;2023-06-22T11:59:19;91840.38;;;33.26;49.68
5952;BME280;3001;42.622;23.194;2023-06-22T12:01:47;91834.63;;;33.40;47.31
5952;BME280;3001;42.622;23.194;2023-06-22T12:04:17;91835.50;;;33.50;53.92
5952;BME280;3001;42.622;23.194;2023-06-22T12:06:43;91828.94;;;33.63;56.08
5952;BME280;3001;42.622;23.194;2023-06-22T12:09:10;91842.69;;;33.81;53.25
5952;BME280;3001;42.622;23.194;2023-06-22T12:11:38;91842.88;;;33.74;54.97
5952;BME280;3001;42.622;23.194;2023-06-22T12:14:05;91848.81;;;33.94;50.80
5952;BME280;3001;42.622;23.194;2023-06-22T12:16:32;91860.56;;;33.88;51.12
5952;BME280;3001;42.622;23.194;2023-06-22T12:18:59;91869.03;;;33.61;50.71
5952;BME280;3001;42.622;23.194;2023-06-22T12:21:27;91877.91;;;33.17;50.85
5952;BME280;3001;42.622;23.194;2023-06-22T12:23:54;91882.94;;;32.87;52.54
5952;BME280;3001;42.622;23.194;2023-06-22T12:26:21;91874.22;;;32.51;54.09
5952;BME280;3001;42.622;23.194;2023-06-22T12:28:47;91883.84;;;32.17;56.59
5952;BME280;3001;42.622;23.194;2023-06-22T12:31:14;91883.78;;;31.85;60.52
5952;BME280;3001;42.622;23.194;2023-06-22T12:33:41;91886.34;;;31.53;62.99
5952;BME280;3001;42.622;23.194;2023-06-22T12:36:08;91882.91;;;31.13;64.45
5952;BME280;3001;42.622;23.194;2023-06-22T12:38:36;91896.91;;;31.01;65.57
5952;BME280;3001;42.622;23.194;2023-06-22T12:41:02;91915.53;;;30.66;65.87
5952;BME280;3001;42.622;23.194;2023-06-22T12:43:29;91910.16;;;30.17;69.00
5952;BME280;3001;42.622;23.194;2023-06-22T12:45:56;91896.16;;;29.76;72.22
5952;BME280;3001;42.622;23.194;2023-06-22T12:48:22;91885.84;;;29.41;73.76
5952;BME280;3001;42.622;23.194;2023-06-22T12:50:50;91888.28;;;29.32;74.60
5952;BME280;3001;42.622;23.194;2023-06-22T12:53:17;91884.47;;;28.96;76.25
5952;BME280;3001;42.622;23.194;2023-06-22T12:55:45;91874.13;;;28.61;78.83
5952;BME280;3001;42.622;23.194;2023-06-22T12:58:11;91877.00;;;28.37;78.73
5952;BME280;3001;42.622;23.194;2023-06-22T13:00:38;91878.66;;;28.17;79.72
5952;BME280;3001;42.622;23.194;2023-06-22T13:03:05;91883.22;;;28.20;79.48
5952;BME280;3001;42.622;23.194;2023-06-22T13:05:32;91871.47;;;28.07;79.27
5952;BME280;3001;42.622;23.194;2023-06-22T13:08:00;91861.97;;;28.02;81.67
5952;BME280;3001;42.622;23.194;2023-06-22T13:10:26;91864.06;;;27.70;84.06
5952;BME280;3001;42.622;23.194;2023-06-22T13:12:54;91852.53;;;27.15;84.23
5952;BME280;3001;42.622;23.194;2023-06-22T13:15:26;91840.72;;;27.06;84.10